sensor_id;sensor_type;location;lat;lon;timestamp;pressure;altitude;pressure_sealevel;temperature;humidity
20115;BME280;10218;42.874;25.320;2023-02-11T00:03:49;99065.00;;;-7.48;100.00
20115;BME280;10218;42.874;25.320;2023-02-11T00:06:17;99065.81;;;-7.44;100.00
20115;BME280;10218;42.874;25.320;2023-02-11T00:08:44;99072.78;;;-7.48;100.00
20115;BME280;10218;42.874;25.320;2023-02-11T00:11:16;99071.75;;;-7.31;100.00
20115;BME280;10218;42.874;25.320;2023-02-11T00:13:44;99071.94;;;-7.50;100.00
20115;BME280;10218;42.874;25.320;2023-02-11T00:16:17;99081.13;;;-8.11;100.00
20115;BME280;10218;42.874;25.320;2023-02-11T00:18:45;99074.62;;;-7.60;100.00
20115;BME280;10218;42.874;25.320;2023-02-11T00:21:16;99081.94;;;-8.03;100.00
20115;BME280;10218;42.874;25.320;2023-02-11T00:23:44;99079.37;;;-8.09;100.00
20115;BME280;10218;42.874;25.320;2023-02-11T00:26:23;99078.59;;;-8.19;100.00
20115;BME280;10218;42.874;25.320;2023-02-11T00:28:51;99086.50;;;-8.34;100.00
20115;BME280;10218;42.874;25.320;2023-02-11T00:31:20;99071.97;;;-8.59;100.00
20115;BME280;10218;42.874;25.320;2023-02-11T00:33:48;99080.28;;;-8.13;100.00
20115;BME280;10218;42.874;25.320;2023-02-11T00:36:22;99067.03;;;-7.80;100.00
20115;BME280;10218;42.874;25.320;2023-02-11T00:38:51;99075.81;;;-7.96;100.00
20115;BME280;10218;42.874;25.320;2023-02-11T00:41:19;99071.31;;;-7.74;100.00
20115;BME280;10218;42.874;25.320;2023-02-11T00:43:47;99072.25;;;-7.83;100.00
20115;BME280;10218;42.874;25.320;2023-02-11T00:46:16;99076.53;;;-7.79;100.00
20115;BME280;10218;42.874;25.320;2023-02-11T00:48:44;99059.38;;;-7.97;100.00
20115;BME280;10218;42.874;25.320;2023-02-11T00:51:11;99063.84;;;-8.12;100.00
20115;BME280;10218;42.874;25.320;2023-02-11T00:53:38;99058.69;;;-8.17;100.00
20115;BME280;10218;42.874;25.320;2023-02-11T00:56:06;99056.31;;;-8.38;100.00
20115;BME280;10218;42.874;25.320;2023-02-11T00:58:33;99062.25;;;-8.29;100.00
20115;BME280;10218;42.874;25.320;2023-02-11T01:01:01;99055.50;;;-8.51;100.00
20115;BME280;10218;42.874;25.320;2023-02-11T01:03:28;99045.63;;;-8.03;100.00
20115;BME280;10218;42.874;25.320;2023-02-11T01:05:55;99049.34;;;-8.33;100.00
20115;BME280;10218;42.874;25.320;2023-02-11T01:08:23;99040.69;;;-8.32;100.00
20115;BME280;10218;42.874;25.320;2023-02-11T01:11:03;99056.41;;;-8.56;100.00
20115;BME280;10218;42.874;25.320;2023-02-11T01:13:32;99049.50;;;-8.54;100.00
20115;BME280;10218;42.874;25.320;2023-02-11T01:16:00;99046.94;;;-8.59;100.00
20115;BME280;10218;42.874;25.320;2023-02-11T01:18:27;99050.34;;;-8.57;100.00
20115;BME280;10218;42.874;25.320;2023-02-11T01:20:54;99054.72;;;-8.59;100.00
20115;BME280;10218;42.874;25.320;2023-02-11T01:23:22;99048.81;;;-8.88;100.00
20115;BME280;10218;42.874;25.320;2023-02-11T01:25:50;99049.72;;;-8.98;100.00
20115;BME280;10218;42.874;25.320;2023-02-11T01:28:22;99030.94;;;-8.07;100.00
20115;BME280;10218;42.874;25.320;2023-02-11T01:30:52;99032.97;;;-8.43;100.00
20115;BME280;10218;42.874;25.320;2023-02-11T01:33:20;99027.88;;;-8.49;100.00
20115;BME280;10218;42.874;25.320;2023-02-11T01:35:47;99038.38;;;-8.72;100.00
20115;BME280;10218;42.874;25.320;2023-02-11T01:38:17;99029.56;;;-8.43;100.00
20115;BME280;10218;42.874;25.320;2023-02-11T01:40:56;99028.94;;;-8.86;100.00
20115;BME280;10218;42.874;25.320;2023-02-11T01:43:25;99032.31;;;-8.72;100.00
20115;BME280;10218;42.874;25.320;2023-02-11T01:46:41;99023.81;;;-8.98;100.00
20115;BME280;10218;42.874;25.320;2023-02-11T01:51:50;99022.78;;;-8.67;100.00
20115;BME280;10218;42.874;25.320;2023-02-11T01:54:23;99002.13;;;-8.75;100.00
20115;BME280;10218;42.874;25.320;2023-02-11T01:57:14;99021.12;;;-8.76;100.00
20115;BME280;10218;42.874;25.320;2023-02-11T02:08:10;99012.31;;;-8.52;100.00
20115;BME280;10218;42.874;25.320;2023-02-11T02:10:43;99015.00;;;-8.67;100.00
20115;BME280;10218;42.874;25.320;2023-02-11T02:13:12;99008.06;;;-8.60;100.00
20115;BME280;10218;42.874;25.320;2023-02-11T02:15:49;99005.47;;;-8.59;100.00
20115;BME280;10218;42.874;25.320;2023-02-11T02:30:31;99012.47;;;-8.73;100.00
20115;BME280;10218;42.874;25.320;2023-02-11T02:35:57;99009.94;;;-8.82;100.00
20115;BME280;10218;42.874;25.320;2023-02-11T02:38:58;99011.72;;;-8.89;100.00
20115;BME280;10218;42.874;25.320;2023-02-11T02:41:28;99009.00;;;-8.72;100.00
20115;BME280;10218;42.874;25.320;2023-02-11T02:43:57;99012.59;;;-8.97;100.00
20115;BME280;10218;42.874;25.320;2023-02-11T02:46:27;98993.75;;;-9.21;100.00
20115;BME280;10218;42.874;25.320;2023-02-11T02:48:56;99005.66;;;-8.92;100.00
20115;BME280;10218;42.874;25.320;2023-02-11T03:08:14;99021.25;;;-9.01;100.00
20115;BME280;10218;42.874;25.320;2023-02-11T03:10:49;99009.22;;;-9.07;100.00
20115;BME280;10218;42.874;25.320;2023-02-11T03:13:19;99019.59;;;-9.19;100.00
20115;BME280;10218;42.874;25.320;2023-02-11T03:15:50;99013.62;;;-9.32;100.00
20115;BME280;10218;42.874;25.320;2023-02-11T03:18:21;99016.88;;;-8.87;100.00
20115;BME280;10218;42.874;25.320;2023-02-11T03:20:52;99010.94;;;-9.07;100.00
20115;BME280;10218;42.874;25.320;2023-02-11T03:23:29;99022.03;;;-8.84;100.00
20115;BME280;10218;42.874;25.320;2023-02-11T03:26:04;99011.75;;;-8.96;100.00
20115;BME280;10218;42.874;25.320;2023-02-11T03:29:05;99022.97;;;-8.97;100.00
20115;BME280;10218;42.874;25.320;2023-02-11T03:32:00;99015.16;;;-8.91;100.00
20115;BME280;10218;42.874;25.320;2023-02-11T03:37:35;99009.19;;;-9.09;100.00
20115;BME280;10218;42.874;25.320;2023-02-11T03:40:09;99016.91;;;-8.98;100.00
20115;BME280;10218;42.874;25.320;2023-02-11T03:42:43;99017.87;;;-9.10;100.00
20115;BME280;10218;42.874;25.320;2023-02-11T03:45:15;99017.81;;;-9.03;100.00
20115;BME280;10218;42.874;25.320;2023-02-11T03:48:03;99020.41;;;-9.08;100.00
20115;BME280;10218;42.874;25.320;2023-02-11T03:50:32;99004.06;;;-9.16;100.00
20115;BME280;10218;42.874;25.320;2023-02-11T03:53:02;99012.81;;;-9.43;100.00
20115;BME280;10218;42.874;25.320;2023-02-11T03:55:32;99016.16;;;-9.24;100.00
20115;BME280;10218;42.874;25.320;2023-02-11T03:58:01;99016.28;;;-9.47;100.00
20115;BME280;10218;42.874;25.320;2023-02-11T04:00:36;99014.53;;;-9.36;100.00
20115;BME280;10218;42.874;25.320;2023-02-11T04:03:04;99016.28;;;-9.47;100.00
20115;BME280;10218;42.874;25.320;2023-02-11T04:05:31;99009.38;;;-9.48;100.00
20115;BME280;10218;42.874;25.320;2023-02-11T04:07:58;99017.16;;;-9.53;100.00
20115;BME280;10218;42.874;25.320;2023-02-11T04:10:26;99014.56;;;-9.51;100.00
20115;BME280;10218;42.874;25.320;2023-02-11T04:12:53;99014.59;;;-9.63;100.00
20115;BME280;10218;42.874;25.320;2023-02-11T04:15:21;99015.41;;;-9.49;100.00
20115;BME280;10218;42.874;25.320;2023-02-11T04:17:49;99014.59;;;-9.57;100.00
20115;BME280;10218;42.874;25.320;2023-02-11T04:20:16;99001.72;;;-9.75;100.00
20115;BME280;10218;42.874;25.320;2023-02-11T04:22:43;99006.88;;;-9.71;100.00
20115;BME280;10218;42.874;25.320;2023-02-11T04:25:10;99003.47;;;-10.00;100.00
20115;BME280;10218;42.874;25.320;2023-02-11T04:27:37;99007.75;;;-9.87;100.00
20115;BME280;10218;42.874;25.320;2023-02-11T04:30:05;99006.88;;;-9.84;100.00
20115;BME280;10218;42.874;25.320;2023-02-11T04:32:33;99002.56;;;-9.70;100.00
20115;BME280;10218;42.874;25.320;2023-02-11T04:35:00;99006.78;;;-9.49;100.00
20115;BME280;10218;42.874;25.320;2023-02-11T04:37:28;98995.59;;;-9.47;100.00
20115;BME280;10218;42.874;25.320;2023-02-11T04:39:55;98993.84;;;-9.42;100.00
20115;BME280;10218;42.874;25.320;2023-02-11T04:42:23;99001.56;;;-9.37;100.00
20115;BME280;10218;42.874;25.320;2023-02-11T04:44:50;98999.88;;;-9.49;100.00
20115;BME280;10218;42.874;25.320;2023-02-11T04:47:18;98999.03;;;-9.54;100.00
20115;BME280;10218;42.874;25.320;2023-02-11T04:49:45;98990.44;;;-9.58;100.00
20115;BME280;10218;42.874;25.320;2023-02-11T04:52:12;98978.31;;;-9.48;100.00
20115;BME280;10218;42.874;25.320;2023-02-11T04:54:39;98992.16;;;-9.55;100.00
20115;BME280;10218;42.874;25.320;2023-02-11T04:57:06;98991.22;;;-9.30;100.00
20115;BME280;10218;42.874;25.320;2023-02-11T04:59:33;98979.00;;;-9.05;100.00
20115;BME280;10218;42.874;25.320;2023-02-11T05:02:01;98939.38;;;-9.24;100.00
20115;BME280;10218;42.874;25.320;2023-02-11T05:04:28;98973.63;;;-8.78;100.00
20115;BME280;10218;42.874;25.320;2023-02-11T05:06:55;98938.44;;;-9.04;100.00
20115;BME280;10218;42.874;25.320;2023-02-11T05:09:24;98973.00;;;-9.15;100.00
20115;BME280;10218;42.874;25.320;2023-02-11T05:11:51;98971.34;;;-9.28;100.00
20115;BME280;10218;42.874;25.320;2023-02-11T05:14:19;98967.84;;;-9.15;100.00
20115;BME280;10218;42.874;25.320;2023-02-11T05:16:46;98949.06;;;-9.62;100.00
20115;BME280;10218;42.874;25.320;2023-02-11T05:19:13;98962.75;;;-9.36;100.00
20115;BME280;10218;42.874;25.320;2023-02-11T05:21:40;98964.50;;;-9.41;100.00
20115;BME280;10218;42.874;25.320;2023-02-11T05:24:19;98961.81;;;-9.24;100.00
20115;BME280;10218;42.874;25.320;2023-02-11T05:26:46;98970.38;;;-9.04;100.00
20115;BME280;10218;42.874;25.320;2023-02-11T05:29:13;98971.28;;;-9.19;100.00
20115;BME280;10218;42.874;25.320;2023-02-11T05:31:40;98971.37;;;-9.31;100.00
20115;BME280;10218;42.874;25.320;2023-02-11T05:34:07;98979.16;;;-9.38;100.00
20115;BME280;10218;42.874;25.320;2023-02-11T05:36:34;98976.59;;;-9.43;100.00
20115;BME280;10218;42.874;25.320;2023-02-11T05:39:02;98964.53;;;-9.53;100.00
20115;BME280;10218;42.874;25.320;2023-02-11T05:41:29;98972.31;;;-9.55;100.00
20115;BME280;10218;42.874;25.320;2023-02-11T05:43:56;98974.00;;;-9.49;100.00
20115;BME280;10218;42.874;25.320;2023-02-11T05:46:24;98968.84;;;-9.47;100.00
20115;BME280;10218;42.874;25.320;2023-02-11T05:48:51;98969.66;;;-9.38;100.00
20115;BME280;10218;42.874;25.320;2023-02-11T05:51:18;98973.03;;;-9.21;100.00
20115;BME280;10218;42.874;25.320;2023-02-11T05:53:46;98971.03;;;-8.76;100.00
20115;BME280;10218;42.874;25.320;2023-02-11T05:56:13;98978.19;;;-9.15;100.00
20115;BME280;10218;42.874;25.320;2023-02-11T05:58:41;98970.41;;;-9.12;100.00
20115;BME280;10218;42.874;25.320;2023-02-11T06:01:08;98979.13;;;-9.31;100.00
20115;BME280;10218;42.874;25.320;2023-02-11T06:03:35;98974.63;;;-8.95;100.00
20115;BME280;10218;42.874;25.320;2023-02-11T06:06:02;98984.06;;;-8.87;100.00
20115;BME280;10218;42.874;25.320;2023-02-11T06:08:29;98978.03;;;-8.90;100.00
20115;BME280;10218;42.874;25.320;2023-02-11T06:10:56;98971.94;;;-8.82;100.00
20115;BME280;10218;42.874;25.320;2023-02-11T06:13:23;98966.56;;;-8.56;100.00
20115;BME280;10218;42.874;25.320;2023-02-11T06:15:58;98967.41;;;-8.49;100.00
20115;BME280;10218;42.874;25.320;2023-02-11T06:18:25;98963.81;;;-8.33;100.00
20115;BME280;10218;42.874;25.320;2023-02-11T06:20:52;98961.94;;;-8.21;100.00
20115;BME280;10218;42.874;25.320;2023-02-11T06:23:20;98948.09;;;-8.19;100.00
20115;BME280;10218;42.874;25.320;2023-02-11T06:25:47;98961.78;;;-8.05;100.00
20115;BME280;10218;42.874;25.320;2023-02-11T06:28:15;98953.28;;;-8.23;100.00
20115;BME280;10218;42.874;25.320;2023-02-11T06:30:42;98958.28;;;-8.01;100.00
20115;BME280;10218;42.874;25.320;2023-02-11T06:33:09;98958.13;;;-7.86;100.00
20115;BME280;10218;42.874;25.320;2023-02-11T06:35:39;98939.97;;;-7.86;100.00
20115;BME280;10218;42.874;25.320;2023-02-11T06:38:06;98954.13;;;-7.37;100.00
20115;BME280;10218;42.874;25.320;2023-02-11T06:40:34;98947.81;;;-7.19;100.00
20115;BME280;10218;42.874;25.320;2023-02-11T06:43:01;98948.75;;;-6.65;100.00
20115;BME280;10218;42.874;25.320;2023-02-11T06:45:28;98960.72;;;-6.53;100.00
20115;BME280;10218;42.874;25.320;2023-02-11T06:47:55;98960.28;;;-6.26;100.00
20115;BME280;10218;42.874;25.320;2023-02-11T06:50:22;98957.44;;;-6.12;100.00
20115;BME280;10218;42.874;25.320;2023-02-11T06:52:49;98957.94;;;-5.90;100.00
20115;BME280;10218;42.874;25.320;2023-02-11T06:55:16;98952.34;;;-6.18;100.00
20115;BME280;10218;42.874;25.320;2023-02-11T06:57:43;98962.28;;;-5.05;100.00
20115;BME280;10218;42.874;25.320;2023-02-11T07:00:11;98961.56;;;-5.54;100.00
20115;BME280;10218;42.874;25.320;2023-02-11T07:02:38;98959.28;;;-5.73;100.00
20115;BME280;10218;42.874;25.320;2023-02-11T07:05:06;98958.16;;;-5.17;100.00
20115;BME280;10218;42.874;25.320;2023-02-11T07:07:33;98946.31;;;-3.20;100.00
20115;BME280;10218;42.874;25.320;2023-02-11T07:10:01;98947.28;;;-1.62;70.22
20115;BME280;10218;42.874;25.320;2023-02-11T07:12:31;98962.22;;;-3.60;81.70
20115;BME280;10218;42.874;25.320;2023-02-11T07:14:58;98957.25;;;-2.78;90.96
20115;BME280;10218;42.874;25.320;2023-02-11T07:17:26;98968.00;;;-2.32;79.25
20115;BME280;10218;42.874;25.320;2023-02-11T07:19:53;98966.41;;;-2.09;78.80
20115;BME280;10218;42.874;25.320;2023-02-11T07:22:19;98972.72;;;-2.43;85.38
20115;BME280;10218;42.874;25.320;2023-02-11T07:24:47;98970.00;;;-3.91;100.00
20115;BME280;10218;42.874;25.320;2023-02-11T07:27:14;98972.75;;;-3.31;98.05
20115;BME280;10218;42.874;25.320;2023-02-11T07:29:41;98955.38;;;-3.64;100.00
20115;BME280;10218;42.874;25.320;2023-02-11T07:32:09;98971.34;;;-3.13;97.72
20115;BME280;10218;42.874;25.320;2023-02-11T07:34:36;98960.47;;;-3.29;95.24
20115;BME280;10218;42.874;25.320;2023-02-11T07:37:03;98963.81;;;-2.94;96.17
20115;BME280;10218;42.874;25.320;2023-02-11T07:39:30;98969.72;;;-3.48;100.00
20115;BME280;10218;42.874;25.320;2023-02-11T07:41:58;98973.38;;;-3.55;100.00
20115;BME280;10218;42.874;25.320;2023-02-11T07:44:26;98955.50;;;-2.50;100.00
20115;BME280;10218;42.874;25.320;2023-02-11T07:46:53;98976.50;;;-2.53;97.96
20115;BME280;10218;42.874;25.320;2023-02-11T07:49:20;98973.75;;;-1.68;92.07
20115;BME280;10218;42.874;25.320;2023-02-11T07:51:47;98967.50;;;-2.17;90.97
20115;BME280;10218;42.874;25.320;2023-02-11T07:54:15;98968.62;;;-1.00;81.65
20115;BME280;10218;42.874;25.320;2023-02-11T07:56:42;98966.84;;;-0.53;74.07
20115;BME280;10218;42.874;25.320;2023-02-11T07:59:09;98952.97;;;-0.34;70.54
20115;BME280;10218;42.874;25.320;2023-02-11T08:01:37;98955.41;;;-0.30;71.71
20115;BME280;10218;42.874;25.320;2023-02-11T08:04:05;98970.31;;;0.13;63.19
20115;BME280;10218;42.874;25.320;2023-02-11T08:06:33;98966.41;;;-0.64;71.40
20115;BME280;10218;42.874;25.320;2023-02-11T08:09:05;98959.28;;;0.25;68.57
20115;BME280;10218;42.874;25.320;2023-02-11T08:11:33;98958.06;;;1.49;59.85
20115;BME280;10218;42.874;25.320;2023-02-11T08:14:00;98955.63;;;1.82;59.06
20115;BME280;10218;42.874;25.320;2023-02-11T08:16:32;98959.63;;;0.77;60.01
20115;BME280;10218;42.874;25.320;2023-02-11T08:19:05;98951.03;;;0.73;60.51
20115;BME280;10218;42.874;25.320;2023-02-11T08:21:32;98950.47;;;1.98;56.97
20115;BME280;10218;42.874;25.320;2023-02-11T08:24:01;98940.31;;;2.07;54.78
20115;BME280;10218;42.874;25.320;2023-02-11T08:26:30;98944.66;;;1.73;56.32
20115;BME280;10218;42.874;25.320;2023-02-11T08:28:58;98932.38;;;1.90;56.21
20115;BME280;10218;42.874;25.320;2023-02-11T08:31:29;98938.78;;;2.71;55.08
20115;BME280;10218;42.874;25.320;2023-02-11T08:33:57;98939.53;;;2.40;54.05
20115;BME280;10218;42.874;25.320;2023-02-11T08:36:27;98936.41;;;2.49;53.19
20115;BME280;10218;42.874;25.320;2023-02-11T08:38:59;98924.34;;;3.58;51.43
20115;BME280;10218;42.874;25.320;2023-02-11T08:41:43;98923.41;;;4.20;48.19
20115;BME280;10218;42.874;25.320;2023-02-11T08:44:11;98930.22;;;3.78;48.90
20115;BME280;10218;42.874;25.320;2023-02-11T08:46:38;98921.03;;;4.45;47.21
20115;BME280;10218;42.874;25.320;2023-02-11T08:49:05;98914.81;;;5.31;47.23
20115;BME280;10218;42.874;25.320;2023-02-11T08:51:33;98915.19;;;6.47;44.69
20115;BME280;10218;42.874;25.320;2023-02-11T08:54:00;98916.25;;;6.57;43.34
20115;BME280;10218;42.874;25.320;2023-02-11T08:56:28;98905.44;;;7.59;42.50
20115;BME280;10218;42.874;25.320;2023-02-11T08:58:57;98900.44;;;9.95;38.47
20115;BME280;10218;42.874;25.320;2023-02-11T09:01:27;98902.97;;;9.09;34.79
20115;BME280;10218;42.874;25.320;2023-02-11T09:03:55;98897.06;;;9.81;32.55
20115;BME280;10218;42.874;25.320;2023-02-11T09:06:25;98898.63;;;9.08;32.97
20115;BME280;10218;42.874;25.320;2023-02-11T09:08:54;98878.47;;;9.91;32.40
20115;BME280;10218;42.874;25.320;2023-02-11T09:11:27;98878.66;;;10.84;32.50
20115;BME280;10218;42.874;25.320;2023-02-11T09:13:56;98885.28;;;10.27;33.29
20115;BME280;10218;42.874;25.320;2023-02-11T09:16:28;98865.97;;;10.76;35.36
20115;BME280;10218;42.874;25.320;2023-02-11T09:18:57;98866.00;;;11.46;33.33
20115;BME280;10218;42.874;25.320;2023-02-11T09:21:25;98859.09;;;11.53;32.99
20115;BME280;10218;42.874;25.320;2023-02-11T09:23:53;98861.91;;;12.02;30.71
20115;BME280;10218;42.874;25.320;2023-02-11T09:26:26;98854.41;;;11.36;31.00
20115;BME280;10218;42.874;25.320;2023-02-11T09:28:53;98865.53;;;8.31;33.33
20115;BME280;10218;42.874;25.320;2023-02-11T09:31:23;98847.12;;;9.72;33.66
20115;BME280;10218;42.874;25.320;2023-02-11T09:33:52;98845.00;;;9.44;33.71
20115;BME280;10218;42.874;25.320;2023-02-11T09:36:22;98852.84;;;10.00;30.98
20115;BME280;10218;42.874;25.320;2023-02-11T09:38:49;98837.16;;;8.87;32.66
20115;BME280;10218;42.874;25.320;2023-02-11T09:43:55;98826.69;;;10.46;30.95
20115;BME280;10218;42.874;25.320;2023-02-11T09:46:24;98823.84;;;11.39;31.25
20115;BME280;10218;42.874;25.320;2023-02-11T09:48:55;98814.97;;;12.07;30.13
20115;BME280;10218;42.874;25.320;2023-02-11T09:51:56;98815.41;;;11.53;30.87
20115;BME280;10218;42.874;25.320;2023-02-11T09:54:35;98812.81;;;10.92;32.61
20115;BME280;10218;42.874;25.320;2023-02-11T09:57:03;98809.12;;;11.14;31.35
20115;BME280;10218;42.874;25.320;2023-02-11T09:59:32;98798.72;;;11.21;32.05
20115;BME280;10218;42.874;25.320;2023-02-11T10:02:04;98790.00;;;11.97;31.02
20115;BME280;10218;42.874;25.320;2023-02-11T10:07:24;98779.34;;;13.00;28.63
20115;BME280;10218;42.874;25.320;2023-02-11T10:16:27;98768.56;;;11.09;30.95
20115;BME280;10218;42.874;25.320;2023-02-11T10:19:18;98765.13;;;12.90;29.47
20115;BME280;10218;42.874;25.320;2023-02-11T10:24:25;98755.84;;;13.39;28.76
20115;BME280;10218;42.874;25.320;2023-02-11T10:26:55;98754.06;;;13.30;28.44
20115;BME280;10218;42.874;25.320;2023-02-11T10:29:39;98750.81;;;11.08;32.04
20115;BME280;10218;42.874;25.320;2023-02-11T10:32:34;98738.22;;;10.80;30.66
20115;BME280;10218;42.874;25.320;2023-02-11T10:35:13;98744.91;;;11.04;32.23
20115;BME280;10218;42.874;25.320;2023-02-11T10:37:41;98724.41;;;10.75;31.53
20115;BME280;10218;42.874;25.320;2023-02-11T10:40:16;98727.09;;;12.11;29.25
20115;BME280;10218;42.874;25.320;2023-02-11T10:42:48;98722.53;;;10.65;32.29
20115;BME280;10218;42.874;25.320;2023-02-11T10:45:32;98712.09;;;14.43;27.87
20115;BME280;10218;42.874;25.320;2023-02-11T10:48:02;98721.31;;;10.79;29.52
20115;BME280;10218;42.874;25.320;2023-02-11T10:50:33;98687.66;;;11.55;29.85
20115;BME280;10218;42.874;25.320;2023-02-11T10:53:11;98698.53;;;14.27;28.07
20115;BME280;10218;42.874;25.320;2023-02-11T10:55:49;98697.44;;;12.31;29.89
20115;BME280;10218;42.874;25.320;2023-02-11T10:58:44;98694.66;;;10.58;30.95
20115;BME280;10218;42.874;25.320;2023-02-11T11:01:12;98691.31;;;10.66;31.86
20115;BME280;10218;42.874;25.320;2023-02-11T11:03:51;98676.84;;;10.78;31.89
20115;BME280;10218;42.874;25.320;2023-02-11T11:06:31;98682.03;;;10.30;30.72
20115;BME280;10218;42.874;25.320;2023-02-11T11:09:00;98678.78;;;11.16;30.96
20115;BME280;10218;42.874;25.320;2023-02-11T11:11:27;98672.00;;;10.02;32.46
20115;BME280;10218;42.874;25.320;2023-02-11T11:13:58;98663.03;;;10.73;31.89
20115;BME280;10218;42.874;25.320;2023-02-11T11:16:27;98664.81;;;13.00;30.53
20115;BME280;10218;42.874;25.320;2023-02-11T11:21:43;98666.66;;;9.39;29.78
20115;BME280;10218;42.874;25.320;2023-02-11T11:26:53;98654.41;;;12.60;27.16
20115;BME280;10218;42.874;25.320;2023-02-11T11:29:45;98646.06;;;12.91;28.33
20115;BME280;10218;42.874;25.320;2023-02-11T11:32:19;98631.13;;;13.94;28.63
20115;BME280;10218;42.874;25.320;2023-02-11T11:34:52;98639.50;;;10.57;29.12
20115;BME280;10218;42.874;25.320;2023-02-11T11:37:28;98628.59;;;11.85;28.47
20115;BME280;10218;42.874;25.320;2023-02-11T11:39:58;98635.66;;;13.33;29.33
20115;BME280;10218;42.874;25.320;2023-02-11T11:42:31;98626.31;;;12.37;28.78
20115;BME280;10218;42.874;25.320;2023-02-11T11:47:50;98616.63;;;11.80;29.24
20115;BME280;10218;42.874;25.320;2023-02-11T11:52:55;98612.16;;;14.22;27.67
20115;BME280;10218;42.874;25.320;2023-02-11T11:55:33;98615.63;;;13.88;26.98
20115;BME280;10218;42.874;25.320;2023-02-11T11:58:03;98608.16;;;14.00;27.48
20115;BME280;10218;42.874;25.320;2023-02-11T12:07:25;98616.09;;;11.09;29.33
20115;BME280;10218;42.874;25.320;2023-02-11T12:20:42;98587.91;;;11.82;27.90
20115;BME280;10218;42.874;25.320;2023-02-11T12:26:28;98594.69;;;10.90;29.33
20115;BME280;10218;42.874;25.320;2023-02-11T12:29:12;98592.41;;;10.56;28.59
20115;BME280;10218;42.874;25.320;2023-02-11T12:37:20;98580.91;;;11.42;27.59
20115;BME280;10218;42.874;25.320;2023-02-11T12:54:00;98560.66;;;11.21;27.12
20115;BME280;10218;42.874;25.320;2023-02-11T12:56:35;98555.75;;;12.46;27.38
20115;BME280;10218;42.874;25.320;2023-02-11T12:59:10;98558.91;;;10.52;28.98
20115;BME280;10218;42.874;25.320;2023-02-11T13:01:42;98548.34;;;11.56;27.86
20115;BME280;10218;42.874;25.320;2023-02-11T13:07:01;98543.06;;;12.66;27.55
20115;BME280;10218;42.874;25.320;2023-02-11T13:09:38;98543.84;;;11.94;27.54
20115;BME280;10218;42.874;25.320;2023-02-11T13:12:09;98536.03;;;13.00;26.45
20115;BME280;10218;42.874;25.320;2023-02-11T13:15:02;98538.09;;;13.67;27.25
20115;BME280;10218;42.874;25.320;2023-02-11T13:17:42;98533.06;;;13.47;26.39
20115;BME280;10218;42.874;25.320;2023-02-11T13:20:20;98522.31;;;13.21;26.53
20115;BME280;10218;42.874;25.320;2023-02-11T13:23:24;98514.75;;;13.68;25.39
20115;BME280;10218;42.874;25.320;2023-02-11T13:31:54;98522.50;;;16.56;24.02
20115;BME280;10218;42.874;25.320;2023-02-11T13:34:24;98508.53;;;16.60;24.89
20115;BME280;10218;42.874;25.320;2023-02-11T13:36:55;98512.72;;;15.36;26.28
20115;BME280;10218;42.874;25.320;2023-02-11T13:39:23;98511.09;;;12.90;27.19
20115;BME280;10218;42.874;25.320;2023-02-11T13:42:01;98511.41;;;13.66;26.75
20115;BME280;10218;42.874;25.320;2023-02-11T13:44:32;98503.03;;;13.69;26.50
20115;BME280;10218;42.874;25.320;2023-02-11T13:47:02;98498.75;;;15.09;25.79
20115;BME280;10218;42.874;25.320;2023-02-11T13:49:39;98478.31;;;12.61;28.27
20115;BME280;10218;42.874;25.320;2023-02-11T13:52:27;98496.69;;;12.56;26.93
20115;BME280;10218;42.874;25.320;2023-02-11T13:55:00;98493.06;;;11.09;29.53
20115;BME280;10218;42.874;25.320;2023-02-11T13:57:32;98488.06;;;13.15;27.64
20115;BME280;10218;42.874;25.320;2023-02-11T14:00:42;98473.56;;;13.85;27.21
20115;BME280;10218;42.874;25.320;2023-02-11T14:11:50;98462.63;;;13.27;28.08
20115;BME280;10218;42.874;25.320;2023-02-11T14:14:22;98465.44;;;11.74;29.13
20115;BME280;10218;42.874;25.320;2023-02-11T14:19:32;98455.06;;;13.82;28.19
20115;BME280;10218;42.874;25.320;2023-02-11T14:22:13;98438.75;;;13.16;27.16
20115;BME280;10218;42.874;25.320;2023-02-11T14:28:00;98435.53;;;14.06;26.64
20115;BME280;10218;42.874;25.320;2023-02-11T14:30:45;98442.81;;;13.80;27.12
20115;BME280;10218;42.874;25.320;2023-02-11T14:36:11;98444.63;;;11.58;30.35
20115;BME280;10218;42.874;25.320;2023-02-11T14:39:06;98415.13;;;12.23;28.56
20115;BME280;10218;42.874;25.320;2023-02-11T14:41:43;98431.91;;;12.42;28.78
20115;BME280;10218;42.874;25.320;2023-02-11T14:44:16;98430.03;;;11.06;30.74
20115;BME280;10218;42.874;25.320;2023-02-11T14:46:45;98420.28;;;8.69;32.71
20115;BME280;10218;42.874;25.320;2023-02-11T14:49:24;98442.72;;;8.23;34.56
20115;BME280;10218;42.874;25.320;2023-02-11T14:51:57;98432.63;;;7.41;36.87
20115;BME280;10218;42.874;25.320;2023-02-11T14:54:27;98428.25;;;7.06;37.63
20115;BME280;10218;42.874;25.320;2023-02-11T14:57:12;98430.97;;;6.71;38.52
20115;BME280;10218;42.874;25.320;2023-02-11T14:59:54;98427.34;;;5.04;39.82
20115;BME280;10218;42.874;25.320;2023-02-11T15:02:24;98430.09;;;4.78;41.53
20115;BME280;10218;42.874;25.320;2023-02-11T15:04:53;98429.38;;;4.76;44.45
20115;BME280;10218;42.874;25.320;2023-02-11T15:07:21;98421.63;;;5.10;45.19
20115;BME280;10218;42.874;25.320;2023-02-11T15:09:50;98420.66;;;4.48;46.10
20115;BME280;10218;42.874;25.320;2023-02-11T15:12:22;98419.75;;;4.87;47.92
20115;BME280;10218;42.874;25.320;2023-02-11T15:14:59;98423.84;;;4.53;48.64
20115;BME280;10218;42.874;25.320;2023-02-11T15:17:29;98415.53;;;4.20;51.43
20115;BME280;10218;42.874;25.320;2023-02-11T15:20:00;98420.41;;;4.26;54.16
20115;BME280;10218;42.874;25.320;2023-02-11T15:22:31;98422.38;;;3.83;58.58
20115;BME280;10218;42.874;25.320;2023-02-11T15:25:12;98414.75;;;3.78;58.15
20115;BME280;10218;42.874;25.320;2023-02-11T15:27:48;98414.59;;;3.67;61.72